createdAt,value
2019-01-13T00:00:36.002Z,2.10
2019-01-13T00:03:04.949Z,2.10
2019-01-13T00:05:33.529Z,2.10
2019-01-13T00:08:02.113Z,2.10
2019-01-13T00:10:30.713Z,2.10
2019-01-13T00:12:59.389Z,2.10
2019-01-13T00:15:28.092Z,2.10
2019-01-13T00:17:56.753Z,2.10
2019-01-13T00:20:25.330Z,2.10
2019-01-13T00:22:53.938Z,2.20
2019-01-13T00:25:22.614Z,2.10
2019-01-13T00:27:51.498Z,2.10
2019-01-13T00:30:20.145Z,2.10
2019-01-13T00:32:48.757Z,2.10
2019-01-13T00:35:17.342Z,2.20
2019-01-13T00:37:45.926Z,2.10
2019-01-13T00:40:14.958Z,2.10
2019-01-13T00:42:43.602Z,2.20
2019-01-13T00:45:12.269Z,2.10
2019-01-13T00:47:40.893Z,2.10
2019-01-13T00:50:11.556Z,2.20
2019-01-13T00:52:40.169Z,2.10
2019-01-13T00:55:09.437Z,2.10
2019-01-13T00:57:38.077Z,2.10
2019-01-13T01:00:09.741Z,2.10
2019-01-13T01:02:38.582Z,2.10
2019-01-13T01:05:08.205Z,2.20
2019-01-13T01:07:36.805Z,2.10
2019-01-13T01:10:06.942Z,2.10
2019-01-13T01:12:35.632Z,2.10
2019-01-13T01:15:05.122Z,2.10
2019-01-13T01:17:33.720Z,2.00
2019-01-13T01:20:02.393Z,2.00
2019-01-13T01:22:30.974Z,2.00
2019-01-13T01:24:59.684Z,1.90
2019-01-13T01:27:28.338Z,1.90
2019-01-13T01:29:56.941Z,1.90
2019-01-13T01:32:25.603Z,1.90
2019-01-13T01:34:54.185Z,1.90
2019-01-13T01:37:22.788Z,1.90
2019-01-13T01:39:51.454Z,2.00
2019-01-13T01:42:20.322Z,1.90
2019-01-13T01:44:48.881Z,2.00
2019-01-13T01:47:17.514Z,1.90
2019-01-13T01:49:46.120Z,1.90
2019-01-13T01:52:14.781Z,1.90
2019-01-13T01:54:43.657Z,1.90
2019-01-13T01:57:12.252Z,1.90
2019-01-13T01:59:40.841Z,1.90
2019-01-13T02:02:09.445Z,1.90
2019-01-13T02:04:38.157Z,1.80
2019-01-13T02:07:06.861Z,1.90
2019-01-13T02:09:35.558Z,1.90
2019-01-13T02:12:04.169Z,1.90
2019-01-13T02:14:32.821Z,1.90
2019-01-13T02:17:01.445Z,2.00
2019-01-13T02:19:30.155Z,2.00
2019-01-13T02:21:58.818Z,2.00
2019-01-13T02:24:27.861Z,2.10
2019-01-13T02:26:56.507Z,2.10
2019-01-13T02:29:25.169Z,2.10
2019-01-13T02:31:53.783Z,2.10
2019-01-13T02:34:22.448Z,2.10
2019-01-13T02:36:51.117Z,2.10
2019-01-13T02:39:20.002Z,2.20
2019-01-13T02:41:48.605Z,2.20
2019-01-13T02:44:17.283Z,2.20
2019-01-13T02:46:45.926Z,2.20
2019-01-13T02:49:14.589Z,2.20
2019-01-13T02:51:43.282Z,2.20
2019-01-13T02:54:11.914Z,2.20
2019-01-13T02:56:40.546Z,2.20
2019-01-13T02:59:09.254Z,2.30
2019-01-13T03:01:38.229Z,2.30
2019-01-13T03:04:06.909Z,2.30
2019-01-13T03:06:37.274Z,2.30
2019-01-13T03:09:07.890Z,2.30
2019-01-13T03:11:36.584Z,2.30
2019-01-13T03:14:05.377Z,2.30
2019-01-13T03:16:34.143Z,2.30
2019-01-13T03:19:02.834Z,2.30
2019-01-13T03:21:31.806Z,2.30
2019-01-13T03:24:00.511Z,2.30
2019-01-13T03:26:29.454Z,2.30
2019-01-13T03:28:58.644Z,2.30
2019-01-13T03:31:27.280Z,2.30
2019-01-13T03:33:55.990Z,2.30
2019-01-13T03:36:24.660Z,2.30
2019-01-13T03:38:53.318Z,2.30
2019-01-13T03:41:22.008Z,2.30
2019-01-13T03:43:50.701Z,2.30
2019-01-13T03:46:19.374Z,2.30
2019-01-13T03:48:48.102Z,2.30
2019-01-13T03:51:16.723Z,2.30
2019-01-13T03:53:45.333Z,2.30
2019-01-13T03:56:14.034Z,2.30
2019-01-13T03:58:42.699Z,2.30
2019-01-13T04:01:18.394Z,2.30
2019-01-13T04:03:41.822Z,2.20
2019-01-13T04:06:10.777Z,2.30
2019-01-13T04:08:39.506Z,2.20
2019-01-13T04:11:08.174Z,2.20
2019-01-13T04:13:36.886Z,2.20
2019-01-13T04:16:05.561Z,2.20
2019-01-13T04:18:34.246Z,2.30
2019-01-13T04:21:02.959Z,2.20
2019-01-13T04:23:31.694Z,2.20
2019-01-13T04:26:00.370Z,2.20
2019-01-13T04:28:29.079Z,2.20
2019-01-13T04:30:58.068Z,2.20
2019-01-13T04:33:26.775Z,2.20
2019-01-13T04:35:55.437Z,2.30
2019-01-13T04:38:24.145Z,2.30
2019-01-13T04:40:52.810Z,2.30
2019-01-13T04:43:21.493Z,2.30
2019-01-13T04:45:50.211Z,2.30
2019-01-13T04:48:18.862Z,2.30
2019-01-13T04:50:47.578Z,2.30
2019-01-13T04:53:16.244Z,2.40
2019-01-13T04:55:44.920Z,2.40
2019-01-13T04:58:13.631Z,2.40
2019-01-13T05:00:42.290Z,2.50
2019-01-13T05:03:11.183Z,2.40
2019-01-13T05:05:39.867Z,2.50
2019-01-13T05:08:08.570Z,2.40
2019-01-13T05:10:37.815Z,2.40
2019-01-13T05:13:06.789Z,2.40
2019-01-13T05:15:35.442Z,2.40
2019-01-13T05:18:04.122Z,2.40
2019-01-13T05:20:32.869Z,2.50
2019-01-13T05:23:01.662Z,2.40
2019-01-13T05:25:30.733Z,2.40
2019-01-13T05:27:59.381Z,2.50
2019-01-13T05:30:28.053Z,2.50
2019-01-13T05:32:56.757Z,2.50
2019-01-13T05:35:25.422Z,2.50
2019-01-13T05:37:54.102Z,2.50
2019-01-13T05:40:22.825Z,2.50
2019-01-13T05:42:51.786Z,2.50
2019-01-13T05:45:20.980Z,2.50
2019-01-13T05:47:49.699Z,2.50
2019-01-13T05:50:18.873Z,2.50
2019-01-13T05:52:49.235Z,2.50
2019-01-13T05:55:17.858Z,2.50
2019-01-13T05:57:46.558Z,2.50
2019-01-13T06:00:20.342Z,2.50
2019-01-13T06:02:49.053Z,2.60
2019-01-13T06:05:17.745Z,2.60
2019-01-13T06:07:46.433Z,2.60
2019-01-13T06:10:16.201Z,2.60
2019-01-13T06:12:44.927Z,2.60
2019-01-13T06:15:15.792Z,2.60
2019-01-13T06:17:44.842Z,2.70
2019-01-13T06:20:15.877Z,2.70
2019-01-13T06:22:44.677Z,2.70
2019-01-13T06:25:13.367Z,2.70
2019-01-13T06:27:42.074Z,2.80
2019-01-13T06:30:13.538Z,2.80
2019-01-13T06:32:42.314Z,2.80
2019-01-13T06:35:11.255Z,2.80
2019-01-13T06:37:40.077Z,2.90
2019-01-13T06:40:11.009Z,2.90
2019-01-13T06:42:40.253Z,2.90
2019-01-13T06:45:17.494Z,2.90
2019-01-13T06:47:46.177Z,2.90
2019-01-13T06:50:15.235Z,2.90
2019-01-13T06:52:43.987Z,2.90
2019-01-13T06:55:12.634Z,2.90
2019-01-13T06:57:41.355Z,2.90
2019-01-13T07:00:14.102Z,2.90
2019-01-13T07:02:42.797Z,2.90
2019-01-13T07:05:11.504Z,2.90
2019-01-13T07:07:40.130Z,2.90
2019-01-13T07:10:09.265Z,2.90
2019-01-13T07:12:38.201Z,2.90
2019-01-13T07:15:08.670Z,3.00
2019-01-13T07:17:37.381Z,2.90
2019-01-13T07:20:07.108Z,3.00
2019-01-13T07:22:35.782Z,3.00
2019-01-13T07:25:04.954Z,3.00
2019-01-13T07:27:33.642Z,3.00
2019-01-13T07:30:02.434Z,3.00
2019-01-13T07:32:31.109Z,3.00
2019-01-13T07:35:00.170Z,3.00
2019-01-13T07:37:29.854Z,3.00
2019-01-13T07:39:58.549Z,3.00
2019-01-13T07:42:27.185Z,3.00
2019-01-13T07:44:55.878Z,3.00
2019-01-13T07:47:24.585Z,2.90
2019-01-13T07:49:53.526Z,3.00
2019-01-13T07:52:22.538Z,2.90
2019-01-13T07:54:51.602Z,3.00
2019-01-13T07:57:20.326Z,2.90
2019-01-13T07:59:49.065Z,3.00
2019-01-13T08:02:18.137Z,3.00
2019-01-13T08:04:46.918Z,3.00
2019-01-13T08:07:15.872Z,3.10
2019-01-13T08:09:44.906Z,3.10
2019-01-13T08:12:13.590Z,3.10
2019-01-13T08:14:42.529Z,3.10
2019-01-13T08:17:11.273Z,3.20
2019-01-13T08:19:40.178Z,3.20
2019-01-13T08:22:08.813Z,3.20
2019-01-13T08:24:37.552Z,3.20
2019-01-13T08:27:06.198Z,3.30
2019-01-13T08:29:34.902Z,3.30
2019-01-13T08:32:03.579Z,3.30
2019-01-13T08:34:32.233Z,3.40
2019-01-13T08:37:01.209Z,3.30
2019-01-13T08:39:29.922Z,3.30
2019-01-13T08:41:58.634Z,3.30
2019-01-13T08:44:27.293Z,3.30
2019-01-13T08:46:55.979Z,3.40
2019-01-13T08:49:24.677Z,3.40
2019-01-13T08:51:53.623Z,3.40
2019-01-13T08:54:22.654Z,3.40
2019-01-13T08:56:51.634Z,3.40
2019-01-13T08:59:20.346Z,3.40
2019-01-13T09:01:49.038Z,3.50
2019-01-13T09:04:17.707Z,3.50
2019-01-13T09:06:46.439Z,3.50
2019-01-13T09:09:15.067Z,3.50
2019-01-13T09:11:43.768Z,3.50
2019-01-13T09:14:12.463Z,3.50
2019-01-13T09:16:41.128Z,3.50
2019-01-13T09:19:10.150Z,3.50
2019-01-13T09:21:38.802Z,3.60
2019-01-13T09:24:07.482Z,3.60
2019-01-13T09:26:36.290Z,3.60
2019-01-13T09:29:04.965Z,3.60
2019-01-13T09:31:33.678Z,3.70
2019-01-13T09:34:02.335Z,3.70
2019-01-13T09:36:31.042Z,3.80
2019-01-13T09:39:00.057Z,3.80
2019-01-13T09:41:28.738Z,3.80
2019-01-13T09:43:57.425Z,3.80
2019-01-13T09:46:26.067Z,3.80
2019-01-13T09:48:54.778Z,3.90
2019-01-13T09:51:23.434Z,3.90
2019-01-13T09:53:52.406Z,3.90
2019-01-13T09:56:21.150Z,3.90
2019-01-13T09:58:49.792Z,3.90
2019-01-13T10:01:18.490Z,3.90
2019-01-13T10:03:47.193Z,3.90
2019-01-13T10:06:17.048Z,3.90
2019-01-13T10:08:45.865Z,3.90
2019-01-13T10:11:14.594Z,4.00
2019-01-13T10:13:43.350Z,4.00
2019-01-13T10:16:12.035Z,4.00
2019-01-13T10:18:40.778Z,4.00
2019-01-13T10:21:09.798Z,4.00
2019-01-13T10:23:38.873Z,4.00
2019-01-13T10:26:13.878Z,4.00
2019-01-13T10:28:41.926Z,4.00
2019-01-13T10:31:10.590Z,4.00
2019-01-13T10:33:39.321Z,4.00
2019-01-13T10:36:08.065Z,4.10
2019-01-13T10:38:36.738Z,4.00
2019-01-13T10:41:05.474Z,4.00
2019-01-13T10:43:34.222Z,4.00
2019-01-13T10:46:02.990Z,4.10
2019-01-13T10:48:32.006Z,4.10
2019-01-13T10:51:01.418Z,4.10
2019-01-13T10:53:30.110Z,4.10
2019-01-13T10:55:58.814Z,4.10
2019-01-13T10:58:27.437Z,4.10
2019-01-13T11:00:56.393Z,4.10
2019-01-13T11:03:25.070Z,4.10
2019-01-13T11:05:53.727Z,4.10
2019-01-13T11:08:22.413Z,4.10
2019-01-13T11:10:51.122Z,4.10
2019-01-13T11:13:19.781Z,4.10
2019-01-13T11:15:48.465Z,4.10
2019-01-13T11:18:17.179Z,4.10
2019-01-13T11:20:45.849Z,4.00
2019-01-13T11:23:14.526Z,4.10
2019-01-13T11:25:43.238Z,4.10
2019-01-13T11:28:11.890Z,4.10
2019-01-13T11:30:41.437Z,4.00
2019-01-13T11:33:10.102Z,4.00
2019-01-13T11:35:38.765Z,3.90
2019-01-13T11:38:07.974Z,3.90
2019-01-13T11:40:36.696Z,3.90
2019-01-13T11:43:05.334Z,3.90
2019-01-13T11:45:34.020Z,3.90
2019-01-13T11:48:02.750Z,3.80
2019-01-13T11:50:31.470Z,3.80
2019-01-13T11:53:00.177Z,3.80
2019-01-13T11:55:28.894Z,3.80
2019-01-13T11:57:57.881Z,3.70
2019-01-13T12:00:46.550Z,3.70
2019-01-13T12:03:16.983Z,3.70
2019-01-13T12:05:45.638Z,3.70
2019-01-13T12:08:14.350Z,3.60
2019-01-13T12:10:43.018Z,3.60
2019-01-13T12:13:11.785Z,3.60
2019-01-13T12:15:40.481Z,3.60
2019-01-13T12:18:09.150Z,3.60
2019-01-13T12:20:37.886Z,3.50
2019-01-13T12:23:06.687Z,3.50
2019-01-13T12:25:35.314Z,3.50
2019-01-13T12:28:04.402Z,3.50
2019-01-13T12:30:33.178Z,3.50
2019-01-13T12:33:01.936Z,3.40
2019-01-13T12:35:30.876Z,3.40
2019-01-13T12:37:59.689Z,3.40
2019-01-13T12:40:29.964Z,3.30
2019-01-13T12:42:58.754Z,3.20
2019-01-13T12:45:27.513Z,3.20
2019-01-13T12:47:56.217Z,3.20
2019-01-13T12:50:27.126Z,3.10
2019-01-13T12:52:55.809Z,3.10
2019-01-13T12:55:24.464Z,3.10
2019-01-13T12:57:53.213Z,3.00
2019-01-13T13:00:21.954Z,3.00
2019-01-13T13:02:50.853Z,2.90
2019-01-13T13:05:19.557Z,2.90
2019-01-13T13:07:48.330Z,2.90
2019-01-13T13:10:26.222Z,2.80
2019-01-13T13:12:56.287Z,2.80
2019-01-13T13:15:24.920Z,2.70
2019-01-13T13:17:53.592Z,2.70
2019-01-13T13:20:23.133Z,2.60
2019-01-13T13:22:51.769Z,2.50
2019-01-13T13:25:20.457Z,2.50
2019-01-13T13:27:49.606Z,2.40
2019-01-13T13:30:20.267Z,2.30
2019-01-13T13:32:49.093Z,2.30
2019-01-13T13:35:17.801Z,2.30
2019-01-13T13:37:46.486Z,2.30
2019-01-13T13:40:17.277Z,2.30
2019-01-13T13:42:46.017Z,2.30
2019-01-13T13:45:14.651Z,2.30
2019-01-13T13:47:43.364Z,2.30
2019-01-13T13:50:14.842Z,2.40
2019-01-13T13:52:43.473Z,2.40
2019-01-13T13:55:12.162Z,2.50
2019-01-13T13:57:40.902Z,2.60
2019-01-13T14:00:16.003Z,2.70
2019-01-13T14:02:45.197Z,2.70
2019-01-13T14:05:14.047Z,2.80
2019-01-13T14:07:42.798Z,2.80
2019-01-13T14:10:32.246Z,2.80
2019-01-13T14:13:00.941Z,2.90
2019-01-13T14:15:29.594Z,2.90
2019-01-13T14:17:58.401Z,2.90
2019-01-13T14:20:27.091Z,3.00
2019-01-13T14:22:56.025Z,3.00
2019-01-13T14:25:24.776Z,3.00
2019-01-13T14:27:53.453Z,3.00
2019-01-13T14:30:24.158Z,3.00
2019-01-13T14:32:52.903Z,3.10
2019-01-13T14:35:21.821Z,3.00
2019-01-13T14:37:50.618Z,3.00
2019-01-13T14:40:20.977Z,3.10
2019-01-13T14:42:49.966Z,3.10
2019-01-13T14:45:23.369Z,3.10
2019-01-13T14:47:52.097Z,3.10
2019-01-13T14:50:22.603Z,3.10
2019-01-13T14:52:51.829Z,3.20
2019-01-13T14:55:20.614Z,3.20
2019-01-13T14:57:49.742Z,3.20
2019-01-13T15:00:23.450Z,3.30
2019-01-13T15:02:52.133Z,3.30
2019-01-13T15:05:20.823Z,3.30
2019-01-13T15:07:49.606Z,3.30
2019-01-13T15:10:18.725Z,3.30
2019-01-13T15:12:47.390Z,3.30
2019-01-13T15:15:16.154Z,3.40
2019-01-13T15:17:44.880Z,3.40
2019-01-13T15:20:15.478Z,3.40
2019-01-13T15:22:44.218Z,3.50
2019-01-13T15:25:15.377Z,3.50
2019-01-13T15:27:44.093Z,3.50
2019-01-13T15:30:23.745Z,3.50
2019-01-13T15:32:52.770Z,3.50
2019-01-13T15:35:21.433Z,3.60
2019-01-13T15:37:50.122Z,3.60
2019-01-13T15:40:19.501Z,3.60
2019-01-13T15:42:48.225Z,3.60
2019-01-13T15:45:17.125Z,3.60
2019-01-13T15:47:45.777Z,3.60
2019-01-13T15:50:19.312Z,3.60
2019-01-13T15:52:47.962Z,3.70
2019-01-13T15:55:16.666Z,3.70
2019-01-13T15:57:45.318Z,3.70
2019-01-13T16:00:16.799Z,3.80
2019-01-13T16:02:45.482Z,3.80
2019-01-13T16:05:14.178Z,3.80
2019-01-13T16:07:42.978Z,3.80
2019-01-13T16:10:14.364Z,3.90
2019-01-13T16:12:42.999Z,3.90
2019-01-13T16:15:11.836Z,3.90
2019-01-13T16:17:40.554Z,3.90
2019-01-13T16:20:16.188Z,4.00
2019-01-13T16:22:44.880Z,4.00
2019-01-13T16:25:13.570Z,4.00
2019-01-13T16:27:42.565Z,4.00
2019-01-13T16:30:14.626Z,4.10
2019-01-13T16:32:43.567Z,4.10
2019-01-13T16:35:12.239Z,4.10
2019-01-13T16:37:41.185Z,4.20
2019-01-13T16:40:12.415Z,4.20
2019-01-13T16:42:41.422Z,4.20
2019-01-13T16:45:10.983Z,4.20
2019-01-13T16:47:39.655Z,4.30
2019-01-13T16:50:12.026Z,4.30
2019-01-13T16:52:41.078Z,4.30
2019-01-13T16:55:09.971Z,4.40
2019-01-13T16:57:39.284Z,4.40
2019-01-13T17:00:12.311Z,4.40
2019-01-13T17:02:41.134Z,4.40
2019-01-13T17:05:10.690Z,4.50
2019-01-13T17:07:39.402Z,4.50
2019-01-13T17:10:10.908Z,4.50
2019-01-13T17:12:39.596Z,4.60
2019-01-13T17:15:09.794Z,4.60
2019-01-13T17:17:38.515Z,4.60
2019-01-13T17:20:10.409Z,4.60
2019-01-13T17:22:39.213Z,4.70
2019-01-13T17:25:08.563Z,4.70
2019-01-13T17:27:37.350Z,4.70
2019-01-13T17:30:08.358Z,4.70
2019-01-13T17:32:37.143Z,4.70
2019-01-13T17:35:06.438Z,4.80
2019-01-13T17:37:35.232Z,4.80
2019-01-13T17:40:04.278Z,4.80
2019-01-13T17:42:32.954Z,4.80
2019-01-13T17:45:01.640Z,4.80
2019-01-13T17:47:30.325Z,4.80
2019-01-13T17:49:59.266Z,4.80
2019-01-13T17:52:27.978Z,4.80
2019-01-13T17:54:56.790Z,4.90
2019-01-13T17:57:25.733Z,4.90
2019-01-13T17:59:54.565Z,4.90
2019-01-13T18:02:23.475Z,4.90
2019-01-13T18:04:52.122Z,4.90
2019-01-13T18:07:21.158Z,4.90
2019-01-13T18:09:49.805Z,4.90
2019-01-13T18:12:18.518Z,4.90
2019-01-13T18:14:47.187Z,4.90
2019-01-13T18:17:16.183Z,4.90
2019-01-13T18:19:44.869Z,5.00
2019-01-13T18:22:13.534Z,5.00
2019-01-13T18:24:42.545Z,5.00
2019-01-13T18:27:11.237Z,5.00
2019-01-13T18:29:39.912Z,5.00
2019-01-13T18:32:08.726Z,5.00
2019-01-13T18:34:37.377Z,5.00
2019-01-13T18:37:06.062Z,5.00
2019-01-13T18:39:34.801Z,5.00
2019-01-13T18:42:03.546Z,5.00
2019-01-13T18:44:32.558Z,5.00
2019-01-13T18:47:01.222Z,5.10
2019-01-13T18:49:29.919Z,5.10
2019-01-13T18:51:58.574Z,5.10
2019-01-13T18:54:27.292Z,5.10
2019-01-13T18:56:55.945Z,5.10
2019-01-13T18:59:24.708Z,5.10
2019-01-13T19:01:53.385Z,5.10
2019-01-13T19:04:22.007Z,5.20
2019-01-13T19:06:50.698Z,5.10
2019-01-13T19:09:19.403Z,5.20
2019-01-13T19:11:51.026Z,5.20
2019-01-13T19:14:53.112Z,5.20
2019-01-13T19:17:24.001Z,5.20
2019-01-13T19:20:14.290Z,5.20
2019-01-13T19:22:45.526Z,5.30
2019-01-13T19:25:23.200Z,5.30
2019-01-13T19:27:52.130Z,5.30
2019-01-13T19:30:20.866Z,5.40
2019-01-13T19:32:49.589Z,5.40
2019-01-13T19:35:18.258Z,5.40
2019-01-13T19:37:46.917Z,5.40
2019-01-13T19:40:16.497Z,5.50
2019-01-13T19:42:45.574Z,5.50
2019-01-13T19:45:15.782Z,5.50
2019-01-13T19:47:44.469Z,5.50
2019-01-13T19:50:16.047Z,5.50
2019-01-13T19:52:44.782Z,5.50
2019-01-13T19:55:14.141Z,5.50
2019-01-13T19:57:43.806Z,5.50
2019-01-13T20:00:18.458Z,5.50
2019-01-13T20:02:47.357Z,5.50
2019-01-13T20:05:16.350Z,5.60
2019-01-13T20:07:45.490Z,5.60
2019-01-13T20:10:14.208Z,5.60
2019-01-13T20:12:42.982Z,5.60
2019-01-13T20:15:12.404Z,5.50
2019-01-13T20:17:41.126Z,5.60
2019-01-13T20:20:10.983Z,5.60
2019-01-13T20:22:39.641Z,5.60
2019-01-13T20:25:09.338Z,5.60
2019-01-13T20:27:38.032Z,5.60
2019-01-13T20:30:11.701Z,5.60
2019-01-13T20:32:49.419Z,5.60
2019-01-13T20:35:19.363Z,5.60
2019-01-13T20:37:46.009Z,5.60
2019-01-13T20:40:17.738Z,5.60
2019-01-13T20:42:46.536Z,5.60
2019-01-13T20:45:19.459Z,5.60
2019-01-13T20:47:48.130Z,5.70
2019-01-13T20:50:16.803Z,5.70
2019-01-13T20:52:45.873Z,5.70
2019-01-13T20:55:14.848Z,5.70
2019-01-13T20:57:43.684Z,5.70
2019-01-13T21:00:18.975Z,5.70
2019-01-13T21:02:47.588Z,5.70
2019-01-13T21:05:16.262Z,5.70
2019-01-13T21:07:44.974Z,5.70
2019-01-13T21:10:13.827Z,5.70
2019-01-13T21:12:42.815Z,5.80
2019-01-13T21:15:13.981Z,5.80
2019-01-13T21:17:42.658Z,5.80
2019-01-13T21:20:11.369Z,5.80
2019-01-13T21:22:40.030Z,5.80
2019-01-13T21:25:10.641Z,5.80
2019-01-13T21:27:39.513Z,5.80
2019-01-13T21:30:17.690Z,5.80
2019-01-13T21:32:46.353Z,5.80
2019-01-13T21:35:15.034Z,5.70
2019-01-13T21:37:43.750Z,5.80
2019-01-13T21:40:12.553Z,5.80
2019-01-13T21:42:41.211Z,5.80
2019-01-13T21:45:11.659Z,5.80
2019-01-13T21:47:40.313Z,5.80
2019-01-13T21:50:11.190Z,5.80
2019-01-13T21:52:39.817Z,5.80
2019-01-13T21:55:09.210Z,5.80
2019-01-13T21:57:38.222Z,5.70
2019-01-13T22:00:10.653Z,5.70
2019-01-13T22:02:39.289Z,5.70
2019-01-13T22:05:08.550Z,5.70
2019-01-13T22:07:37.283Z,5.70
2019-01-13T22:10:07.721Z,5.70
2019-01-13T22:12:36.366Z,5.80
2019-01-13T22:15:05.661Z,5.80
2019-01-13T22:17:34.605Z,5.80
2019-01-13T22:20:03.355Z,5.80
2019-01-13T22:22:32.106Z,5.80
2019-01-13T22:25:00.822Z,5.80
2019-01-13T22:27:29.526Z,5.80
2019-01-13T22:29:58.185Z,5.80
2019-01-13T22:32:26.897Z,5.80
2019-01-13T22:34:55.560Z,5.80
2019-01-13T22:37:24.526Z,5.80
2019-01-13T22:39:53.249Z,5.80
2019-01-13T22:42:21.913Z,5.90
2019-01-13T22:44:50.629Z,5.90
2019-01-13T22:47:19.545Z,5.90
2019-01-13T22:49:48.581Z,6.00
2019-01-13T22:52:17.289Z,6.00
2019-01-13T22:54:45.958Z,6.00
2019-01-13T22:57:14.686Z,6.00
2019-01-13T22:59:43.334Z,6.00
2019-01-13T23:02:12.014Z,6.00
2019-01-13T23:04:40.722Z,6.10
2019-01-13T23:07:09.467Z,6.10
2019-01-13T23:09:38.210Z,6.10
2019-01-13T23:12:07.097Z,6.10
2019-01-13T23:14:35.757Z,6.10
2019-01-13T23:17:04.462Z,6.10
2019-01-13T23:19:33.129Z,6.10
2019-01-13T23:22:01.838Z,6.10
2019-01-13T23:24:30.788Z,6.10
2019-01-13T23:26:59.481Z,6.20
2019-01-13T23:29:28.194Z,6.20
2019-01-13T23:31:56.862Z,6.20
2019-01-13T23:34:25.577Z,6.20
2019-01-13T23:36:54.222Z,6.30
2019-01-13T23:39:22.919Z,6.20
2019-01-13T23:41:51.989Z,6.30
2019-01-13T23:44:20.689Z,6.30
2019-01-13T23:46:49.407Z,6.30
2019-01-13T23:49:18.242Z,6.30
2019-01-13T23:51:46.973Z,6.30
2019-01-13T23:54:15.664Z,6.30
2019-01-13T23:56:44.410Z,6.20
2019-01-13T23:59:13.138Z,6.20
